This is the latest recevied weather packets stored in our database for station/object DG8SF-13. If no packets are shown the sender has not sent any weather packets the latest 10 day(s).
| Time | Temp. | Humidity | Pressure | Rain* | Wind** | Luminosity | Snow |
|---|---|---|---|---|---|---|---|
| 1777693914 | 3.33° C | 88% | 1022.9 hPa | 0 mm | - | - | - |
| 1777693601 | 3.33° C | 86% | 1022.9 hPa | 0 mm | - | - | - |
| 1777693290 | 3.33° C | 87% | 1022.8 hPa | 0 mm | - | - | - |
| 1777692979 | 3.33° C | 86% | 1022.8 hPa | 0 mm | - | - | - |
| 1777692681 | 3.33° C | 86% | 1022.8 hPa | 0 mm | - | - | - |
| 1777692366 | 3.33° C | 86% | 1022.9 hPa | 0 mm | - | - | - |
| 1777692068 | 3.33° C | 87% | 1022.9 hPa | 0 mm | - | - | - |
| 1777691755 | 3.33° C | 86% | 1023 hPa | 0 mm | - | - | - |
| 1777691442 | 3.33° C | 86% | 1022.9 hPa | 0 mm | - | - | - |
| 1777691130 | 3.33° C | 85% | 1023 hPa | 0 mm | - | - | - |
| 1777690820 | 3.33° C | 86% | 1023 hPa | 0 mm | - | - | - |
| 1777690506 | 3.33° C | 87% | 1023.1 hPa | 0 mm | - | - | - |
| 1777690194 | 3.33° C | 85% | 1023.2 hPa | 0 mm | - | - | - |
| 1777689894 | 3.89° C | 85% | 1023.2 hPa | 0 mm | - | - | - |
| 1777689584 | 3.89° C | 84% | 1023.2 hPa | 0 mm | - | - | - |
| 1777689270 | 3.89° C | 84% | 1023.1 hPa | 0 mm | - | - | - |
| 1777688958 | 3.89° C | 83% | 1023.1 hPa | 0 mm | - | - | - |
| 1777688647 | 4.44° C | 84% | 1023.1 hPa | 0 mm | - | - | - |
| 1777687698 | 4.44° C | 83% | 1023.3 hPa | 0 mm | - | - | - |
| 1777674371 | 10° C | 62% | 1024.2 hPa | 0 mm | - | - | - |
| 1777674054 | 10.56° C | 59% | 1024.3 hPa | 0 mm | - | - | - |
| 1777673132 | 10.56° C | 58% | 1024.2 hPa | 0 mm | - | - | - |
| 1777671273 | 10.56° C | 58% | 1024.2 hPa | 0 mm | - | - | - |
| 1777670025 | 11.11° C | 55% | 1024.2 hPa | 0 mm | - | - | - |
| 1777669400 | 11.67° C | 54% | 1024.2 hPa | 0 mm | - | - | - |
* Rain latest hour (hover to see other rain measurements)
** Current wind speed in m/s (hover to see current wind gust speed)